sensor_id;sensor_type;location;lat;lon;timestamp;temperature;humidity
20866;DHT22;10593;48.398;10.698;2023-04-28T00:01:20;14.40;47.10
20866;DHT22;10593;48.398;10.698;2023-04-28T00:03:45;14.40;47.10
20866;DHT22;10593;48.398;10.698;2023-04-28T00:06:11;14.40;47.30
20866;DHT22;10593;48.398;10.698;2023-04-28T00:08:37;14.30;47.30
20866;DHT22;10593;48.398;10.698;2023-04-28T00:11:02;14.40;47.40
20866;DHT22;10593;48.398;10.698;2023-04-28T00:13:28;14.30;47.40
20866;DHT22;10593;48.398;10.698;2023-04-28T00:15:54;14.30;47.40
20866;DHT22;10593;48.398;10.698;2023-04-28T00:18:20;14.30;47.40
20866;DHT22;10593;48.398;10.698;2023-04-28T00:20:46;14.30;47.50
20866;DHT22;10593;48.398;10.698;2023-04-28T00:23:12;14.30;47.60
20866;DHT22;10593;48.398;10.698;2023-04-28T00:25:38;14.30;47.70
20866;DHT22;10593;48.398;10.698;2023-04-28T00:28:04;14.30;47.70
20866;DHT22;10593;48.398;10.698;2023-04-28T00:30:30;14.20;47.60
20866;DHT22;10593;48.398;10.698;2023-04-28T00:32:56;14.20;47.70
20866;DHT22;10593;48.398;10.698;2023-04-28T00:35:22;14.20;47.70
20866;DHT22;10593;48.398;10.698;2023-04-28T00:37:47;14.20;47.70
20866;DHT22;10593;48.398;10.698;2023-04-28T00:40:13;14.20;47.70
20866;DHT22;10593;48.398;10.698;2023-04-28T00:42:39;14.20;47.80
20866;DHT22;10593;48.398;10.698;2023-04-28T00:45:05;14.20;48.40
20866;DHT22;10593;48.398;10.698;2023-04-28T00:47:33;14.20;47.90
20866;DHT22;10593;48.398;10.698;2023-04-28T00:50:00;14.20;47.90
20866;DHT22;10593;48.398;10.698;2023-04-28T00:52:27;14.20;47.90
20866;DHT22;10593;48.398;10.698;2023-04-28T00:54:53;14.20;48.00
20866;DHT22;10593;48.398;10.698;2023-04-28T00:57:19;14.10;47.90
20866;DHT22;10593;48.398;10.698;2023-04-28T00:59:46;14.10;47.90
20866;DHT22;10593;48.398;10.698;2023-04-28T01:02:11;14.10;47.90
20866;DHT22;10593;48.398;10.698;2023-04-28T01:04:42;14.10;47.90
20866;DHT22;10593;48.398;10.698;2023-04-28T01:07:09;14.10;47.90
20866;DHT22;10593;48.398;10.698;2023-04-28T01:09:36;14.10;48.10
20866;DHT22;10593;48.398;10.698;2023-04-28T01:12:02;14.10;48.10
20866;DHT22;10593;48.398;10.698;2023-04-28T01:14:27;14.10;48.40
20866;DHT22;10593;48.398;10.698;2023-04-28T01:16:53;14.10;48.40
20866;DHT22;10593;48.398;10.698;2023-04-28T01:19:21;14.10;48.50
20866;DHT22;10593;48.398;10.698;2023-04-28T01:21:48;14.10;48.50
20866;DHT22;10593;48.398;10.698;2023-04-28T01:24:14;14.10;48.60
20866;DHT22;10593;48.398;10.698;2023-04-28T01:26:41;14.10;48.60
20866;DHT22;10593;48.398;10.698;2023-04-28T01:29:07;14.10;48.80
20866;DHT22;10593;48.398;10.698;2023-04-28T01:31:32;14.10;49.00
20866;DHT22;10593;48.398;10.698;2023-04-28T01:33:58;14.10;49.10
20866;DHT22;10593;48.398;10.698;2023-04-28T01:36:24;14.00;49.10
20866;DHT22;10593;48.398;10.698;2023-04-28T01:38:53;14.10;49.20
20866;DHT22;10593;48.398;10.698;2023-04-28T01:41:19;14.00;49.30
20866;DHT22;10593;48.398;10.698;2023-04-28T01:43:45;14.10;49.50
20866;DHT22;10593;48.398;10.698;2023-04-28T01:46:10;14.10;49.60
20866;DHT22;10593;48.398;10.698;2023-04-28T01:48:36;14.10;49.60
20866;DHT22;10593;48.398;10.698;2023-04-28T01:51:02;14.10;49.60
20866;DHT22;10593;48.398;10.698;2023-04-28T01:53:27;14.00;49.60
20866;DHT22;10593;48.398;10.698;2023-04-28T01:55:53;14.10;49.70
20866;DHT22;10593;48.398;10.698;2023-04-28T01:58:19;14.10;49.80
20866;DHT22;10593;48.398;10.698;2023-04-28T02:00:46;14.10;49.80
20866;DHT22;10593;48.398;10.698;2023-04-28T02:03:12;14.10;49.90
20866;DHT22;10593;48.398;10.698;2023-04-28T02:05:37;14.10;49.90
20866;DHT22;10593;48.398;10.698;2023-04-28T02:08:03;14.10;50.00
20866;DHT22;10593;48.398;10.698;2023-04-28T02:10:29;14.00;49.80
20866;DHT22;10593;48.398;10.698;2023-04-28T02:12:55;14.10;50.00
20866;DHT22;10593;48.398;10.698;2023-04-28T02:15:20;14.10;49.90
20866;DHT22;10593;48.398;10.698;2023-04-28T02:17:46;14.10;50.00
20866;DHT22;10593;48.398;10.698;2023-04-28T02:20:12;14.00;50.00
20866;DHT22;10593;48.398;10.698;2023-04-28T02:22:39;14.00;50.00
20866;DHT22;10593;48.398;10.698;2023-04-28T02:25:06;14.00;50.10
20866;DHT22;10593;48.398;10.698;2023-04-28T02:27:34;14.00;50.20
20866;DHT22;10593;48.398;10.698;2023-04-28T02:30:02;14.00;50.20
20866;DHT22;10593;48.398;10.698;2023-04-28T02:32:28;14.00;50.30
20866;DHT22;10593;48.398;10.698;2023-04-28T02:34:54;14.00;50.30
20866;DHT22;10593;48.398;10.698;2023-04-28T02:37:20;14.00;50.30
20866;DHT22;10593;48.398;10.698;2023-04-28T02:39:46;14.00;50.30
20866;DHT22;10593;48.398;10.698;2023-04-28T02:42:12;14.00;50.30
20866;DHT22;10593;48.398;10.698;2023-04-28T02:44:38;14.00;50.50
20866;DHT22;10593;48.398;10.698;2023-04-28T02:47:03;14.00;50.60
20866;DHT22;10593;48.398;10.698;2023-04-28T02:49:29;14.00;50.70
20866;DHT22;10593;48.398;10.698;2023-04-28T02:51:55;14.00;50.70
20866;DHT22;10593;48.398;10.698;2023-04-28T02:54:20;14.00;50.90
20866;DHT22;10593;48.398;10.698;2023-04-28T02:56:53;14.00;51.00
20866;DHT22;10593;48.398;10.698;2023-04-28T02:59:19;14.00;51.00
20866;DHT22;10593;48.398;10.698;2023-04-28T03:01:46;14.00;51.00
20866;DHT22;10593;48.398;10.698;2023-04-28T03:04:12;14.00;51.10
20866;DHT22;10593;48.398;10.698;2023-04-28T03:06:38;14.00;51.10
20866;DHT22;10593;48.398;10.698;2023-04-28T03:09:04;13.90;51.10
20866;DHT22;10593;48.398;10.698;2023-04-28T03:11:30;14.00;51.20
20866;DHT22;10593;48.398;10.698;2023-04-28T03:13:55;14.00;51.20
20866;DHT22;10593;48.398;10.698;2023-04-28T03:16:21;14.00;51.20
20866;DHT22;10593;48.398;10.698;2023-04-28T03:18:46;14.00;51.20
20866;DHT22;10593;48.398;10.698;2023-04-28T03:21:12;14.00;51.30
20866;DHT22;10593;48.398;10.698;2023-04-28T03:23:38;14.00;51.40
20866;DHT22;10593;48.398;10.698;2023-04-28T03:26:03;14.00;51.60
20866;DHT22;10593;48.398;10.698;2023-04-28T03:28:29;14.00;51.70
20866;DHT22;10593;48.398;10.698;2023-04-28T03:30:55;14.00;51.80
20866;DHT22;10593;48.398;10.698;2023-04-28T03:33:20;14.00;52.10
20866;DHT22;10593;48.398;10.698;2023-04-28T03:35:46;13.90;52.30
20866;DHT22;10593;48.398;10.698;2023-04-28T03:38:12;14.00;52.50
20866;DHT22;10593;48.398;10.698;2023-04-28T03:40:37;13.90;52.50
20866;DHT22;10593;48.398;10.698;2023-04-28T03:43:03;14.00;52.70
20866;DHT22;10593;48.398;10.698;2023-04-28T03:45:29;13.90;52.80
20866;DHT22;10593;48.398;10.698;2023-04-28T03:47:55;13.90;53.00
20866;DHT22;10593;48.398;10.698;2023-04-28T03:50:21;14.00;53.20
20866;DHT22;10593;48.398;10.698;2023-04-28T03:52:46;13.90;53.00
20866;DHT22;10593;48.398;10.698;2023-04-28T03:55:12;13.90;53.10
20866;DHT22;10593;48.398;10.698;2023-04-28T03:57:38;13.90;53.20
20866;DHT22;10593;48.398;10.698;2023-04-28T04:00:04;13.90;53.30
20866;DHT22;10593;48.398;10.698;2023-04-28T04:02:30;13.90;53.30
20866;DHT22;10593;48.398;10.698;2023-04-28T04:04:55;13.90;53.20
20866;DHT22;10593;48.398;10.698;2023-04-28T04:07:21;13.90;53.20
20866;DHT22;10593;48.398;10.698;2023-04-28T04:09:47;13.90;53.30
20866;DHT22;10593;48.398;10.698;2023-04-28T04:12:13;13.90;53.30
20866;DHT22;10593;48.398;10.698;2023-04-28T04:14:39;13.90;53.30
20866;DHT22;10593;48.398;10.698;2023-04-28T04:17:05;13.90;53.30
20866;DHT22;10593;48.398;10.698;2023-04-28T04:19:31;13.90;53.30
20866;DHT22;10593;48.398;10.698;2023-04-28T04:21:56;13.90;53.30
20866;DHT22;10593;48.398;10.698;2023-04-28T04:24:22;13.90;53.30
20866;DHT22;10593;48.398;10.698;2023-04-28T04:26:48;13.90;53.30
20866;DHT22;10593;48.398;10.698;2023-04-28T04:29:13;13.90;53.40
20866;DHT22;10593;48.398;10.698;2023-04-28T04:31:39;13.90;53.40
20866;DHT22;10593;48.398;10.698;2023-04-28T04:34:05;13.80;53.40
20866;DHT22;10593;48.398;10.698;2023-04-28T04:36:31;13.90;53.60
20866;DHT22;10593;48.398;10.698;2023-04-28T04:38:57;13.90;53.70
20866;DHT22;10593;48.398;10.698;2023-04-28T04:41:24;13.90;53.80
20866;DHT22;10593;48.398;10.698;2023-04-28T04:43:50;13.80;53.70
20866;DHT22;10593;48.398;10.698;2023-04-28T04:46:16;13.80;53.70
20866;DHT22;10593;48.398;10.698;2023-04-28T04:48:41;13.80;53.90
20866;DHT22;10593;48.398;10.698;2023-04-28T04:51:07;13.80;54.00
20866;DHT22;10593;48.398;10.698;2023-04-28T04:53:33;13.80;54.00
20866;DHT22;10593;48.398;10.698;2023-04-28T04:55:59;13.80;54.30
20866;DHT22;10593;48.398;10.698;2023-04-28T04:58:26;13.80;54.40
20866;DHT22;10593;48.398;10.698;2023-04-28T05:00:51;13.80;54.40
20866;DHT22;10593;48.398;10.698;2023-04-28T05:03:17;13.80;54.40
20866;DHT22;10593;48.398;10.698;2023-04-28T05:05:43;13.80;54.40
20866;DHT22;10593;48.398;10.698;2023-04-28T05:08:12;13.80;54.40
20866;DHT22;10593;48.398;10.698;2023-04-28T05:10:37;13.80;54.40
20866;DHT22;10593;48.398;10.698;2023-04-28T05:13:03;13.80;54.40
20866;DHT22;10593;48.398;10.698;2023-04-28T05:15:29;13.80;54.50
20866;DHT22;10593;48.398;10.698;2023-04-28T05:17:55;13.80;54.50
20866;DHT22;10593;48.398;10.698;2023-04-28T05:20:22;13.80;54.50
20866;DHT22;10593;48.398;10.698;2023-04-28T05:22:47;13.80;54.70
20866;DHT22;10593;48.398;10.698;2023-04-28T05:25:13;13.80;54.60
20866;DHT22;10593;48.398;10.698;2023-04-28T05:27:39;13.80;54.60
20866;DHT22;10593;48.398;10.698;2023-04-28T05:30:07;13.80;54.60
20866;DHT22;10593;48.398;10.698;2023-04-28T05:32:35;13.80;54.60
20866;DHT22;10593;48.398;10.698;2023-04-28T05:35:02;13.80;54.50
20866;DHT22;10593;48.398;10.698;2023-04-28T05:37:28;13.80;54.50
20866;DHT22;10593;48.398;10.698;2023-04-28T05:39:54;13.90;54.70
20866;DHT22;10593;48.398;10.698;2023-04-28T05:42:19;13.90;54.80
20866;DHT22;10593;48.398;10.698;2023-04-28T05:44:45;13.90;54.90
20866;DHT22;10593;48.398;10.698;2023-04-28T05:47:11;13.90;54.90
20866;DHT22;10593;48.398;10.698;2023-04-28T05:49:37;13.90;54.90
20866;DHT22;10593;48.398;10.698;2023-04-28T05:52:02;13.90;54.90
20866;DHT22;10593;48.398;10.698;2023-04-28T05:54:28;13.90;55.00
20866;DHT22;10593;48.398;10.698;2023-04-28T05:56:55;13.90;55.10
20866;DHT22;10593;48.398;10.698;2023-04-28T05:59:22;13.90;55.10
20866;DHT22;10593;48.398;10.698;2023-04-28T06:01:48;13.90;55.00
20866;DHT22;10593;48.398;10.698;2023-04-28T06:04:15;13.90;55.00
20866;DHT22;10593;48.398;10.698;2023-04-28T06:06:41;13.90;55.10
20866;DHT22;10593;48.398;10.698;2023-04-28T06:09:06;13.90;55.10
20866;DHT22;10593;48.398;10.698;2023-04-28T06:11:32;14.00;55.20
20866;DHT22;10593;48.398;10.698;2023-04-28T06:13:58;13.90;55.40
20866;DHT22;10593;48.398;10.698;2023-04-28T06:16:23;14.00;55.70
20866;DHT22;10593;48.398;10.698;2023-04-28T06:18:49;14.00;55.70
20866;DHT22;10593;48.398;10.698;2023-04-28T06:21:15;14.00;55.90
20866;DHT22;10593;48.398;10.698;2023-04-28T06:23:41;14.00;56.10
20866;DHT22;10593;48.398;10.698;2023-04-28T06:26:07;14.00;55.90
20866;DHT22;10593;48.398;10.698;2023-04-28T06:28:33;14.00;56.10
20866;DHT22;10593;48.398;10.698;2023-04-28T06:30:59;14.00;56.20
20866;DHT22;10593;48.398;10.698;2023-04-28T06:33:25;14.00;56.50
20866;DHT22;10593;48.398;10.698;2023-04-28T06:35:51;14.10;56.60
20866;DHT22;10593;48.398;10.698;2023-04-28T06:38:18;14.00;56.60
20866;DHT22;10593;48.398;10.698;2023-04-28T06:40:44;14.10;56.60
20866;DHT22;10593;48.398;10.698;2023-04-28T06:43:10;14.10;56.60
20866;DHT22;10593;48.398;10.698;2023-04-28T06:45:37;14.10;56.80
20866;DHT22;10593;48.398;10.698;2023-04-28T06:48:03;14.10;56.80
20866;DHT22;10593;48.398;10.698;2023-04-28T06:50:30;14.10;56.90
20866;DHT22;10593;48.398;10.698;2023-04-28T06:52:56;14.10;56.90
20866;DHT22;10593;48.398;10.698;2023-04-28T06:55:23;14.20;57.00
20866;DHT22;10593;48.398;10.698;2023-04-28T06:57:48;14.20;57.10
20866;DHT22;10593;48.398;10.698;2023-04-28T07:00:15;14.20;57.00
20866;DHT22;10593;48.398;10.698;2023-04-28T07:02:41;14.20;57.10
20866;DHT22;10593;48.398;10.698;2023-04-28T07:05:06;14.20;57.20
20866;DHT22;10593;48.398;10.698;2023-04-28T07:07:33;14.20;57.30
20866;DHT22;10593;48.398;10.698;2023-04-28T07:09:59;14.30;57.30
20866;DHT22;10593;48.398;10.698;2023-04-28T07:12:26;14.20;57.50
20866;DHT22;10593;48.398;10.698;2023-04-28T07:14:51;14.30;58.10
20866;DHT22;10593;48.398;10.698;2023-04-28T07:17:17;14.30;58.20
20866;DHT22;10593;48.398;10.698;2023-04-28T07:19:43;14.30;58.10
20866;DHT22;10593;48.398;10.698;2023-04-28T07:22:09;14.30;58.20
20866;DHT22;10593;48.398;10.698;2023-04-28T07:24:35;14.30;58.10
20866;DHT22;10593;48.398;10.698;2023-04-28T07:27:00;14.30;58.60
20866;DHT22;10593;48.398;10.698;2023-04-28T07:29:28;14.30;58.80
20866;DHT22;10593;48.398;10.698;2023-04-28T07:31:58;14.30;59.00
20866;DHT22;10593;48.398;10.698;2023-04-28T07:34:25;14.30;59.40
20866;DHT22;10593;48.398;10.698;2023-04-28T07:36:51;14.30;59.60
20866;DHT22;10593;48.398;10.698;2023-04-28T07:39:17;14.30;59.70
20866;DHT22;10593;48.398;10.698;2023-04-28T07:41:43;14.30;59.90
20866;DHT22;10593;48.398;10.698;2023-04-28T07:44:08;14.40;60.40
20866;DHT22;10593;48.398;10.698;2023-04-28T07:46:35;14.40;60.50
20866;DHT22;10593;48.398;10.698;2023-04-28T07:49:01;14.30;60.40
20866;DHT22;10593;48.398;10.698;2023-04-28T07:51:27;14.40;60.60
20866;DHT22;10593;48.398;10.698;2023-04-28T07:53:53;14.40;60.70
20866;DHT22;10593;48.398;10.698;2023-04-28T07:56:18;14.40;60.50
20866;DHT22;10593;48.398;10.698;2023-04-28T07:58:46;14.40;60.70
20866;DHT22;10593;48.398;10.698;2023-04-28T08:01:12;14.40;60.80
20866;DHT22;10593;48.398;10.698;2023-04-28T08:03:38;14.40;60.90
20866;DHT22;10593;48.398;10.698;2023-04-28T08:06:03;14.40;61.20
20866;DHT22;10593;48.398;10.698;2023-04-28T08:08:29;14.50;61.60
20866;DHT22;10593;48.398;10.698;2023-04-28T08:10:55;14.50;61.90
20866;DHT22;10593;48.398;10.698;2023-04-28T08:13:21;14.50;61.80
20866;DHT22;10593;48.398;10.698;2023-04-28T08:15:48;14.50;61.90
20866;DHT22;10593;48.398;10.698;2023-04-28T08:18:14;14.50;62.10
20866;DHT22;10593;48.398;10.698;2023-04-28T08:20:40;14.50;62.00
20866;DHT22;10593;48.398;10.698;2023-04-28T08:23:07;14.60;62.20
20866;DHT22;10593;48.398;10.698;2023-04-28T08:25:33;14.50;62.30
20866;DHT22;10593;48.398;10.698;2023-04-28T08:27:58;14.60;62.30
20866;DHT22;10593;48.398;10.698;2023-04-28T08:30:24;14.60;62.30
20866;DHT22;10593;48.398;10.698;2023-04-28T08:32:50;14.60;62.30
20866;DHT22;10593;48.398;10.698;2023-04-28T08:35:15;14.70;62.30
20866;DHT22;10593;48.398;10.698;2023-04-28T08:37:41;14.60;62.30
20866;DHT22;10593;48.398;10.698;2023-04-28T08:40:08;14.70;62.40
20866;DHT22;10593;48.398;10.698;2023-04-28T08:42:35;14.70;62.40
20866;DHT22;10593;48.398;10.698;2023-04-28T08:45:03;14.70;62.40
20866;DHT22;10593;48.398;10.698;2023-04-28T08:47:34;14.70;62.70
20866;DHT22;10593;48.398;10.698;2023-04-28T08:50:06;14.70;63.00
20866;DHT22;10593;48.398;10.698;2023-04-28T08:52:34;14.80;63.20
20866;DHT22;10593;48.398;10.698;2023-04-28T08:55:04;14.80;62.90
20866;DHT22;10593;48.398;10.698;2023-04-28T08:57:38;14.80;62.90
20866;DHT22;10593;48.398;10.698;2023-04-28T09:00:08;14.80;62.80
20866;DHT22;10593;48.398;10.698;2023-04-28T09:02:35;14.80;62.50
20866;DHT22;10593;48.398;10.698;2023-04-28T09:05:05;14.90;62.70
20866;DHT22;10593;48.398;10.698;2023-04-28T09:07:31;14.90;62.90
20866;DHT22;10593;48.398;10.698;2023-04-28T09:12:45;14.90;63.70
20866;DHT22;10593;48.398;10.698;2023-04-28T09:15:25;14.90;63.00
20866;DHT22;10593;48.398;10.698;2023-04-28T09:17:53;14.90;63.30
20866;DHT22;10593;48.398;10.698;2023-04-28T09:20:26;14.90;62.90
20866;DHT22;10593;48.398;10.698;2023-04-28T09:22:54;14.90;63.20
20866;DHT22;10593;48.398;10.698;2023-04-28T09:25:22;15.00;63.20
20866;DHT22;10593;48.398;10.698;2023-04-28T09:27:48;14.90;63.10
20866;DHT22;10593;48.398;10.698;2023-04-28T09:30:15;15.00;63.30
20866;DHT22;10593;48.398;10.698;2023-04-28T09:32:41;15.00;63.20
20866;DHT22;10593;48.398;10.698;2023-04-28T09:35:07;15.00;63.30
20866;DHT22;10593;48.398;10.698;2023-04-28T09:37:34;15.00;63.50
20866;DHT22;10593;48.398;10.698;2023-04-28T09:40:07;15.00;63.60
20866;DHT22;10593;48.398;10.698;2023-04-28T09:42:42;15.00;64.10
20866;DHT22;10593;48.398;10.698;2023-04-28T09:45:12;15.00;64.00
20866;DHT22;10593;48.398;10.698;2023-04-28T09:47:41;15.00;63.90
20866;DHT22;10593;48.398;10.698;2023-04-28T09:50:09;15.00;64.10
20866;DHT22;10593;48.398;10.698;2023-04-28T09:52:40;15.10;64.20
20866;DHT22;10593;48.398;10.698;2023-04-28T09:55:09;15.10;64.20
20866;DHT22;10593;48.398;10.698;2023-04-28T09:57:37;15.10;64.20
20866;DHT22;10593;48.398;10.698;2023-04-28T10:00:05;15.10;64.30
20866;DHT22;10593;48.398;10.698;2023-04-28T10:02:35;15.10;64.50
20866;DHT22;10593;48.398;10.698;2023-04-28T10:05:01;15.10;64.50
20866;DHT22;10593;48.398;10.698;2023-04-28T10:07:28;15.10;64.50
20866;DHT22;10593;48.398;10.698;2023-04-28T10:09:59;15.20;64.80
20866;DHT22;10593;48.398;10.698;2023-04-28T10:12:26;15.10;64.70
20866;DHT22;10593;48.398;10.698;2023-04-28T10:14:52;15.20;65.00
20866;DHT22;10593;48.398;10.698;2023-04-28T10:17:22;15.20;65.00
20866;DHT22;10593;48.398;10.698;2023-04-28T10:19:52;15.20;65.00
20866;DHT22;10593;48.398;10.698;2023-04-28T10:25:28;15.20;65.70
20866;DHT22;10593;48.398;10.698;2023-04-28T10:27:57;15.20;65.10
20866;DHT22;10593;48.398;10.698;2023-04-28T10:30:25;15.20;65.20
20866;DHT22;10593;48.398;10.698;2023-04-28T10:38:18;15.20;65.50
20866;DHT22;10593;48.398;10.698;2023-04-28T10:40:50;15.30;66.00
20866;DHT22;10593;48.398;10.698;2023-04-28T10:56:20;15.30;66.00
20866;DHT22;10593;48.398;10.698;2023-04-28T10:58:49;15.40;66.70
20866;DHT22;10593;48.398;10.698;2023-04-28T11:06:34;15.40;66.50
20866;DHT22;10593;48.398;10.698;2023-04-28T11:14:36;15.40;66.90
20866;DHT22;10593;48.398;10.698;2023-04-28T11:17:09;15.40;66.60
20866;DHT22;10593;48.398;10.698;2023-04-28T11:19:40;15.50;66.90
20866;DHT22;10593;48.398;10.698;2023-04-28T11:22:17;15.40;66.80
20866;DHT22;10593;48.398;10.698;2023-04-28T11:24:58;15.40;67.00
20866;DHT22;10593;48.398;10.698;2023-04-28T11:27:26;15.50;67.70
20866;DHT22;10593;48.398;10.698;2023-04-28T11:29:54;15.50;67.40
20866;DHT22;10593;48.398;10.698;2023-04-28T11:32:47;15.50;67.50
20866;DHT22;10593;48.398;10.698;2023-04-28T11:35:14;15.50;68.60
20866;DHT22;10593;48.398;10.698;2023-04-28T11:37:39;15.50;67.70
20866;DHT22;10593;48.398;10.698;2023-04-28T11:40:12;15.60;67.90
20866;DHT22;10593;48.398;10.698;2023-04-28T11:42:48;15.60;68.90
20866;DHT22;10593;48.398;10.698;2023-04-28T11:45:14;15.60;69.40
20866;DHT22;10593;48.398;10.698;2023-04-28T11:47:40;15.60;68.90
20866;DHT22;10593;48.398;10.698;2023-04-28T11:50:06;15.60;68.90
20866;DHT22;10593;48.398;10.698;2023-04-28T11:52:32;15.70;69.00
20866;DHT22;10593;48.398;10.698;2023-04-28T11:54:58;15.70;69.00
20866;DHT22;10593;48.398;10.698;2023-04-28T11:57:26;15.70;69.10
20866;DHT22;10593;48.398;10.698;2023-04-28T11:59:52;15.80;69.20
20866;DHT22;10593;48.398;10.698;2023-04-28T12:02:25;15.80;69.20
20866;DHT22;10593;48.398;10.698;2023-04-28T12:04:54;15.80;69.70
20866;DHT22;10593;48.398;10.698;2023-04-28T12:07:20;15.90;69.70
20866;DHT22;10593;48.398;10.698;2023-04-28T12:09:48;15.90;70.50
20866;DHT22;10593;48.398;10.698;2023-04-28T12:12:41;15.90;71.10
20866;DHT22;10593;48.398;10.698;2023-04-28T12:15:07;15.90;70.70
20866;DHT22;10593;48.398;10.698;2023-04-28T12:17:38;16.00;70.70
20866;DHT22;10593;48.398;10.698;2023-04-28T12:20:32;16.00;70.70
20866;DHT22;10593;48.398;10.698;2023-04-28T12:22:59;16.10;71.00
20866;DHT22;10593;48.398;10.698;2023-04-28T12:25:25;16.10;70.20
20866;DHT22;10593;48.398;10.698;2023-04-28T12:27:59;16.10;70.10
20866;DHT22;10593;48.398;10.698;2023-04-28T12:30:27;16.10;70.30
20866;DHT22;10593;48.398;10.698;2023-04-28T12:32:54;16.20;69.90
20866;DHT22;10593;48.398;10.698;2023-04-28T12:35:21;16.20;69.80
20866;DHT22;10593;48.398;10.698;2023-04-28T12:37:47;16.20;69.70
20866;DHT22;10593;48.398;10.698;2023-04-28T12:40:13;16.20;69.50
20866;DHT22;10593;48.398;10.698;2023-04-28T12:42:39;16.20;69.50
20866;DHT22;10593;48.398;10.698;2023-04-28T12:45:05;16.30;69.60
20866;DHT22;10593;48.398;10.698;2023-04-28T12:47:32;16.30;69.50
20866;DHT22;10593;48.398;10.698;2023-04-28T12:49:58;16.30;69.40
20866;DHT22;10593;48.398;10.698;2023-04-28T12:52:24;16.30;69.60
20866;DHT22;10593;48.398;10.698;2023-04-28T12:54:50;16.30;69.80
20866;DHT22;10593;48.398;10.698;2023-04-28T12:57:16;16.30;70.30
20866;DHT22;10593;48.398;10.698;2023-04-28T12:59:44;16.30;70.50
20866;DHT22;10593;48.398;10.698;2023-04-28T13:02:11;16.30;70.40
20866;DHT22;10593;48.398;10.698;2023-04-28T13:04:39;16.30;70.30
20866;DHT22;10593;48.398;10.698;2023-04-28T13:07:07;16.30;70.10
20866;DHT22;10593;48.398;10.698;2023-04-28T13:09:33;16.40;70.20
20866;DHT22;10593;48.398;10.698;2023-04-28T13:11:59;16.40;70.40
20866;DHT22;10593;48.398;10.698;2023-04-28T13:14:28;16.40;70.50
20866;DHT22;10593;48.398;10.698;2023-04-28T13:16:54;16.40;70.50
20866;DHT22;10593;48.398;10.698;2023-04-28T13:19:19;16.40;70.40
20866;DHT22;10593;48.398;10.698;2023-04-28T13:21:45;16.40;70.50
20866;DHT22;10593;48.398;10.698;2023-04-28T13:24:14;16.40;70.50
20866;DHT22;10593;48.398;10.698;2023-04-28T13:26:40;16.40;70.40
20866;DHT22;10593;48.398;10.698;2023-04-28T13:29:08;16.40;70.50
20866;DHT22;10593;48.398;10.698;2023-04-28T13:31:34;16.40;70.90
20866;DHT22;10593;48.398;10.698;2023-04-28T13:33:59;16.40;71.00
20866;DHT22;10593;48.398;10.698;2023-04-28T13:36:27;16.50;71.10
20866;DHT22;10593;48.398;10.698;2023-04-28T13:38:56;16.50;71.10
20866;DHT22;10593;48.398;10.698;2023-04-28T13:41:22;16.50;71.20
20866;DHT22;10593;48.398;10.698;2023-04-28T13:43:48;16.50;71.20
20866;DHT22;10593;48.398;10.698;2023-04-28T13:46:14;16.60;71.30
20866;DHT22;10593;48.398;10.698;2023-04-28T13:48:40;16.50;71.20
20866;DHT22;10593;48.398;10.698;2023-04-28T13:51:06;16.60;71.40
20866;DHT22;10593;48.398;10.698;2023-04-28T13:53:33;16.60;71.50
20866;DHT22;10593;48.398;10.698;2023-04-28T13:56:00;16.60;71.40
20866;DHT22;10593;48.398;10.698;2023-04-28T13:58:27;16.60;71.40
20866;DHT22;10593;48.398;10.698;2023-04-28T14:00:54;16.70;71.40
20866;DHT22;10593;48.398;10.698;2023-04-28T14:03:22;16.70;71.30
20866;DHT22;10593;48.398;10.698;2023-04-28T14:05:53;16.70;71.00
20866;DHT22;10593;48.398;10.698;2023-04-28T14:08:22;16.70;70.80
20866;DHT22;10593;48.398;10.698;2023-04-28T14:10:49;16.70;70.40
20866;DHT22;10593;48.398;10.698;2023-04-28T14:13:16;16.70;70.20
20866;DHT22;10593;48.398;10.698;2023-04-28T14:15:43;16.80;70.10
20866;DHT22;10593;48.398;10.698;2023-04-28T14:18:10;16.80;70.00
20866;DHT22;10593;48.398;10.698;2023-04-28T14:20:36;16.80;69.90
20866;DHT22;10593;48.398;10.698;2023-04-28T14:23:02;16.80;69.80
20866;DHT22;10593;48.398;10.698;2023-04-28T14:25:28;16.80;69.80
20866;DHT22;10593;48.398;10.698;2023-04-28T14:27:54;16.80;69.70
20866;DHT22;10593;48.398;10.698;2023-04-28T14:30:21;16.80;69.50
20866;DHT22;10593;48.398;10.698;2023-04-28T14:32:47;16.80;69.50
20866;DHT22;10593;48.398;10.698;2023-04-28T14:35:14;16.80;69.40
20866;DHT22;10593;48.398;10.698;2023-04-28T14:37:40;16.80;69.40
20866;DHT22;10593;48.398;10.698;2023-04-28T14:40:06;16.90;69.50
20866;DHT22;10593;48.398;10.698;2023-04-28T14:42:34;16.90;69.50
20866;DHT22;10593;48.398;10.698;2023-04-28T14:45:05;16.90;70.10
20866;DHT22;10593;48.398;10.698;2023-04-28T14:47:32;16.90;69.60
20866;DHT22;10593;48.398;10.698;2023-04-28T14:49:59;16.90;69.40
20866;DHT22;10593;48.398;10.698;2023-04-28T14:52:25;16.90;69.40
20866;DHT22;10593;48.398;10.698;2023-04-28T14:54:53;16.90;69.50
20866;DHT22;10593;48.398;10.698;2023-04-28T14:57:20;16.90;69.40
20866;DHT22;10593;48.398;10.698;2023-04-28T14:59:46;16.90;69.20
20866;DHT22;10593;48.398;10.698;2023-04-28T15:02:11;16.90;68.90
20866;DHT22;10593;48.398;10.698;2023-04-28T15:04:40;16.90;68.40
20866;DHT22;10593;48.398;10.698;2023-04-28T15:07:06;16.90;68.30
20866;DHT22;10593;48.398;10.698;2023-04-28T15:09:33;16.90;68.30
20866;DHT22;10593;48.398;10.698;2023-04-28T15:12:00;16.90;67.90
20866;DHT22;10593;48.398;10.698;2023-04-28T15:14:28;16.90;67.70
20866;DHT22;10593;48.398;10.698;2023-04-28T15:16:54;16.90;67.50
20866;DHT22;10593;48.398;10.698;2023-04-28T15:19:20;16.80;67.10
20866;DHT22;10593;48.398;10.698;2023-04-28T15:21:45;16.90;67.20
20866;DHT22;10593;48.398;10.698;2023-04-28T15:24:12;16.90;67.00
20866;DHT22;10593;48.398;10.698;2023-04-28T15:26:39;16.80;66.70
20866;DHT22;10593;48.398;10.698;2023-04-28T15:29:05;16.80;66.60
20866;DHT22;10593;48.398;10.698;2023-04-28T15:31:30;16.80;66.70
20866;DHT22;10593;48.398;10.698;2023-04-28T15:33:57;16.80;66.70
20866;DHT22;10593;48.398;10.698;2023-04-28T15:36:22;16.80;66.80
20866;DHT22;10593;48.398;10.698;2023-04-28T15:38:48;16.80;66.80
20866;DHT22;10593;48.398;10.698;2023-04-28T15:41:16;16.80;66.90
20866;DHT22;10593;48.398;10.698;2023-04-28T15:43:41;16.70;66.70
20866;DHT22;10593;48.398;10.698;2023-04-28T15:46:08;16.80;66.70
20866;DHT22;10593;48.398;10.698;2023-04-28T15:48:36;16.70;66.50